createdAt,value
2023-04-18T00:02:23.393Z,3.00
2023-04-18T00:04:51.751Z,4.00
2023-04-18T00:07:19.972Z,2.00
2023-04-18T00:09:47.918Z,2.00
2023-04-18T00:12:16.196Z,5.00
2023-04-18T00:14:44.406Z,3.00
2023-04-18T00:17:13.590Z,2.67
2023-04-18T00:19:43.391Z,4.00
2023-04-18T00:23:13.307Z,2.00
2023-04-18T00:26:21.766Z,4.00
2023-04-18T00:29:09.826Z,3.00
2023-04-18T00:34:07.703Z,3.00
2023-04-18T00:36:35.921Z,5.00
2023-04-18T00:39:04.131Z,3.50
2023-04-18T00:41:32.712Z,2.00
2023-04-18T00:44:01.148Z,3.50
2023-04-18T00:46:29.270Z,2.50
2023-04-18T00:48:57.475Z,4.50
2023-04-18T00:51:25.747Z,3.00
2023-04-18T00:53:54.130Z,3.00
2023-04-18T00:56:23.839Z,3.00
2023-04-18T00:58:51.995Z,2.00
2023-04-18T01:01:20.078Z,2.00
2023-04-18T01:03:49.479Z,4.00
2023-04-18T01:06:18.335Z,4.00
2023-04-18T01:11:34.388Z,3.00
2023-04-18T01:14:05.546Z,2.00
2023-04-18T01:16:40.105Z,2.00
2023-04-18T01:19:08.519Z,2.00
2023-04-18T01:21:37.505Z,1.00
2023-04-18T01:24:12.555Z,3.00
2023-04-18T01:26:44.227Z,3.50
2023-04-18T01:29:12.439Z,3.00
2023-04-18T01:34:18.173Z,4.00
2023-04-18T01:36:46.803Z,5.00
2023-04-18T01:39:15.552Z,3.00
2023-04-18T01:41:44.538Z,4.00
2023-04-18T01:44:12.842Z,4.00
2023-04-18T01:46:41.277Z,2.00
2023-04-18T01:49:10.034Z,3.00
2023-04-18T01:51:39.021Z,4.00
2023-04-18T01:54:15.788Z,4.00
2023-04-18T01:56:44.010Z,3.00
2023-04-18T01:59:12.096Z,3.00
2023-04-18T02:01:40.677Z,3.00
2023-04-18T02:04:09.004Z,2.00
2023-04-18T02:06:37.205Z,3.00
2023-04-18T02:09:05.355Z,2.00
2023-04-18T02:11:34.394Z,3.00
2023-04-18T02:14:05.153Z,5.00
2023-04-18T02:16:35.474Z,2.00
2023-04-18T02:19:12.533Z,2.00
2023-04-18T02:21:44.918Z,2.00
2023-04-18T02:24:13.806Z,4.00
2023-04-18T02:26:44.435Z,2.50
2023-04-18T02:29:12.720Z,2.00
2023-04-18T02:31:41.761Z,3.00
2023-04-18T02:34:10.735Z,2.00
2023-04-18T02:36:39.032Z,2.00
2023-04-18T02:39:07.131Z,3.00
2023-04-18T02:41:37.642Z,2.00
2023-04-18T02:44:07.172Z,2.00
2023-04-18T02:46:37.461Z,2.00
2023-04-18T02:49:07.540Z,1.00
2023-04-18T02:51:36.200Z,1.00
2023-04-18T02:54:05.183Z,1.00
2023-04-18T02:56:44.282Z,1.67
2023-04-18T02:59:27.835Z,2.00
2023-04-18T03:02:47.974Z,3.00
2023-04-18T03:05:47.055Z,2.00
2023-04-18T03:08:16.295Z,2.33
2023-04-18T03:10:44.324Z,2.00
2023-04-18T03:13:12.399Z,3.00
2023-04-18T03:16:01.203Z,5.00
2023-04-18T03:19:06.040Z,4.00
2023-04-18T03:21:36.213Z,3.50
2023-04-18T03:24:25.236Z,2.00
2023-04-18T03:26:54.153Z,3.00
2023-04-18T03:29:24.507Z,6.00
2023-04-18T03:31:52.955Z,4.00
2023-04-18T03:34:21.851Z,4.00
2023-04-18T03:36:50.255Z,3.00
2023-04-18T03:39:18.761Z,6.00
2023-04-18T03:41:47.236Z,5.50
2023-04-18T03:44:15.940Z,5.00
2023-04-18T03:46:44.508Z,11.00
2023-04-18T03:49:13.363Z,7.00
2023-04-18T03:51:49.710Z,7.00
2023-04-18T03:54:26.245Z,10.00
2023-04-18T03:56:55.937Z,6.50
2023-04-18T03:59:24.216Z,6.50
2023-04-18T04:01:52.313Z,8.00
2023-04-18T04:04:20.560Z,8.50
2023-04-18T04:07:09.227Z,8.00
2023-04-18T04:09:37.597Z,8.00
2023-04-18T04:12:07.368Z,9.00
2023-04-18T04:14:35.603Z,8.50
2023-04-18T04:17:04.947Z,8.00
2023-04-18T04:19:34.625Z,10.00
2023-04-18T04:22:09.301Z,10.00
2023-04-18T04:24:39.301Z,8.50
2023-04-18T04:27:08.205Z,9.00
2023-04-18T04:29:39.258Z,11.00
2023-04-18T04:32:08.313Z,14.00
2023-04-18T04:34:41.386Z,12.00
2023-04-18T04:37:14.143Z,12.00
2023-04-18T04:39:53.737Z,11.50
2023-04-18T04:42:41.218Z,18.00
2023-04-18T04:45:14.035Z,13.00
2023-04-18T04:47:42.079Z,11.50
2023-04-18T04:50:14.848Z,14.50
2023-04-18T04:52:43.419Z,11.67
2023-04-18T04:55:11.755Z,13.00
2023-04-18T04:57:45.055Z,11.00
2023-04-18T05:00:40.085Z,12.50
2023-04-18T05:03:09.918Z,9.00
2023-04-18T05:05:38.216Z,13.00
2023-04-18T05:08:26.352Z,15.00
2023-04-18T05:10:55.406Z,11.00
2023-04-18T05:13:23.368Z,11.00
2023-04-18T05:15:53.137Z,11.00
2023-04-18T05:18:21.957Z,14.00
2023-04-18T05:20:50.537Z,13.00
2023-04-18T05:23:18.631Z,15.00
2023-04-18T05:25:46.804Z,16.00
2023-04-18T05:28:55.212Z,17.00
2023-04-18T05:31:23.371Z,15.00
2023-04-18T05:33:51.365Z,12.00
2023-04-18T05:36:19.563Z,15.00
2023-04-18T05:38:55.737Z,15.00
2023-04-18T05:41:23.664Z,23.50
2023-04-18T05:44:04.250Z,18.00
2023-04-18T05:46:33.678Z,17.00
2023-04-18T05:49:02.498Z,14.00
2023-04-18T05:51:31.348Z,15.00
2023-04-18T05:53:59.720Z,17.50
2023-04-18T05:56:27.733Z,15.00
2023-04-18T05:58:55.987Z,18.00
2023-04-18T06:01:24.019Z,15.00
2023-04-18T06:03:52.022Z,15.00
2023-04-18T06:06:20.503Z,12.00
2023-04-18T06:08:48.663Z,20.00
2023-04-18T06:11:16.756Z,16.00
2023-04-18T06:13:44.690Z,17.00
2023-04-18T06:16:13.353Z,19.00
2023-04-18T06:18:41.450Z,14.00
2023-04-18T06:21:09.630Z,16.50
2023-04-18T06:23:38.619Z,16.00
2023-04-18T06:26:07.488Z,15.00
2023-04-18T06:29:14.000Z,16.00
2023-04-18T06:31:42.315Z,15.00
2023-04-18T06:34:10.397Z,15.00
2023-04-18T06:36:38.529Z,16.00
2023-04-18T06:39:06.992Z,14.00
2023-04-18T06:41:35.300Z,17.00
2023-04-18T06:44:04.638Z,15.50
2023-04-18T06:46:33.356Z,15.00
2023-04-18T06:49:01.616Z,15.00
2023-04-18T06:51:29.583Z,15.00
2023-04-18T06:53:58.209Z,23.00
2023-04-18T06:56:26.457Z,17.50
2023-04-18T06:59:14.668Z,16.00
2023-04-18T07:01:51.237Z,15.00
2023-04-18T07:04:19.797Z,18.50
2023-04-18T07:06:50.570Z,18.50
2023-04-18T07:09:18.846Z,15.50
2023-04-18T07:11:47.003Z,18.00
2023-04-18T07:14:15.258Z,20.33
2023-04-18T07:16:43.553Z,13.00
2023-04-18T07:19:12.000Z,16.00
2023-04-18T07:21:40.718Z,16.00
2023-04-18T07:24:09.056Z,17.00
2023-04-18T07:26:38.249Z,15.00
2023-04-18T07:29:06.524Z,17.00
2023-04-18T07:31:34.541Z,16.67
2023-04-18T07:34:02.634Z,17.00
2023-04-18T07:36:31.478Z,15.00
2023-04-18T07:38:59.815Z,18.00
2023-04-18T07:41:27.886Z,15.00
2023-04-18T07:43:56.514Z,16.00
2023-04-18T07:46:24.595Z,17.00
2023-04-18T07:48:52.923Z,15.00
2023-04-18T07:51:25.489Z,21.00
2023-04-18T07:53:53.427Z,20.00
2023-04-18T07:56:21.732Z,11.00
2023-04-18T08:01:31.134Z,19.00
2023-04-18T08:04:02.037Z,13.00
2023-04-18T08:06:30.745Z,17.00
2023-04-18T08:08:59.117Z,14.50
2023-04-18T08:11:27.167Z,12.00
2023-04-18T08:13:55.408Z,10.50
2023-04-18T08:16:23.738Z,12.00
2023-04-18T08:18:52.036Z,13.00
2023-04-18T08:21:20.784Z,11.50
2023-04-18T08:23:49.238Z,13.50
2023-04-18T08:26:17.279Z,19.00
2023-04-18T08:28:46.581Z,12.00
2023-04-18T08:31:15.461Z,11.50
2023-04-18T08:33:43.529Z,15.00
2023-04-18T08:36:12.632Z,14.00
2023-04-18T08:38:40.677Z,14.00
2023-04-18T08:41:08.802Z,13.50
2023-04-18T08:43:37.831Z,14.00
2023-04-18T08:46:06.899Z,13.00
2023-04-18T08:48:34.899Z,12.00
2023-04-18T08:51:03.151Z,9.00
2023-04-18T08:53:33.939Z,14.50
2023-04-18T08:56:05.651Z,12.00
2023-04-18T08:58:34.989Z,11.00
2023-04-18T09:01:03.332Z,13.00
2023-04-18T09:03:43.392Z,11.00
2023-04-18T09:06:16.508Z,10.00
2023-04-18T09:09:04.010Z,13.00
2023-04-18T09:11:34.460Z,13.00
2023-04-18T09:14:24.402Z,14.00
2023-04-18T09:16:53.481Z,17.00
2023-04-18T09:19:21.913Z,18.67
2023-04-18T09:21:59.552Z,11.00
2023-04-18T09:24:34.443Z,11.00
2023-04-18T09:29:50.025Z,14.00
2023-04-18T09:32:30.818Z,12.00
2023-04-18T09:35:04.014Z,11.00
2023-04-18T09:37:32.785Z,14.00
2023-04-18T09:40:00.881Z,8.00
2023-04-18T09:42:36.242Z,13.00
2023-04-18T09:45:06.624Z,12.00
2023-04-18T09:47:36.717Z,10.00
2023-04-18T09:50:07.543Z,11.00
2023-04-18T09:52:38.237Z,11.00
2023-04-18T09:55:09.483Z,13.00
2023-04-18T09:57:41.780Z,11.00
2023-04-18T10:00:24.171Z,12.00
2023-04-18T10:03:05.178Z,12.00
2023-04-18T10:05:35.738Z,12.50
2023-04-18T10:08:04.494Z,9.50
2023-04-18T10:10:33.231Z,9.00
2023-04-18T10:13:06.557Z,9.00
2023-04-18T10:15:35.009Z,9.00
2023-04-18T10:18:09.278Z,9.67
2023-04-18T10:20:37.263Z,7.00
2023-04-18T10:23:36.364Z,10.00
2023-04-18T10:26:11.268Z,9.50
2023-04-18T10:28:58.890Z,7.50
2023-04-18T10:31:28.757Z,11.00
2023-04-18T10:34:05.316Z,10.00
2023-04-18T10:36:33.797Z,9.33
2023-04-18T10:39:20.834Z,8.00
2023-04-18T10:41:51.171Z,6.00
2023-04-18T10:44:22.732Z,10.50
2023-04-18T10:46:51.220Z,9.00
2023-04-18T10:49:30.309Z,8.33
2023-04-18T10:52:02.433Z,7.50
2023-04-18T10:54:41.072Z,8.00
2023-04-18T10:57:10.266Z,7.00
2023-04-18T10:59:42.598Z,8.00
2023-04-18T11:02:30.180Z,9.00
2023-04-18T11:05:00.879Z,7.00
2023-04-18T11:07:46.153Z,7.50
2023-04-18T11:10:18.822Z,5.00
2023-04-18T11:12:47.489Z,6.00
2023-04-18T11:15:24.168Z,7.00
2023-04-18T11:17:59.943Z,6.00
2023-04-18T11:20:29.339Z,7.00
2023-04-18T11:22:59.474Z,7.00
2023-04-18T11:25:34.777Z,5.50
2023-04-18T11:28:04.957Z,5.00
2023-04-18T11:30:38.571Z,5.50
2023-04-18T11:33:12.027Z,8.00
2023-04-18T11:35:49.385Z,6.00
2023-04-18T11:38:18.670Z,6.00
2023-04-18T11:40:50.686Z,7.50
2023-04-18T11:43:25.625Z,7.00
2023-04-18T11:45:56.324Z,6.00
2023-04-18T11:48:25.012Z,7.00
2023-04-18T11:50:53.084Z,5.50
2023-04-18T11:53:38.101Z,6.00
2023-04-18T11:56:07.040Z,6.00
2023-04-18T11:58:36.511Z,5.33
2023-04-18T12:01:25.369Z,8.00
2023-04-18T12:04:01.418Z,7.00
2023-04-18T12:06:46.632Z,5.50
2023-04-18T12:09:15.908Z,5.00
2023-04-18T12:11:44.596Z,7.00
2023-04-18T12:14:22.297Z,6.00
2023-04-18T12:16:51.331Z,6.00
2023-04-18T12:19:20.855Z,6.00
2023-04-18T12:22:06.848Z,4.00
2023-04-18T12:24:36.207Z,4.00
2023-04-18T12:27:04.495Z,5.00
2023-04-18T12:29:40.902Z,6.50
2023-04-18T12:32:08.910Z,4.00
2023-04-18T12:34:36.938Z,6.00
2023-04-18T12:37:05.140Z,5.00
2023-04-18T12:39:33.265Z,4.50
2023-04-18T12:42:02.365Z,4.00
2023-04-18T12:44:30.619Z,4.50
2023-04-18T12:46:58.839Z,5.00
2023-04-18T12:49:26.979Z,6.00
2023-04-18T12:51:54.985Z,5.00
2023-04-18T12:54:22.953Z,5.00
2023-04-18T12:56:50.958Z,4.50
2023-04-18T12:59:18.854Z,7.00
2023-04-18T13:01:46.888Z,6.00
2023-04-18T13:04:15.401Z,8.00
2023-04-18T13:06:43.678Z,7.00
2023-04-18T13:09:12.142Z,6.00
2023-04-18T13:11:40.340Z,5.50
2023-04-18T13:14:08.438Z,7.00
2023-04-18T13:16:36.612Z,8.00
2023-04-18T13:19:04.599Z,6.00
2023-04-18T13:21:32.543Z,6.00
2023-04-18T13:24:01.126Z,9.00
2023-04-18T13:26:29.267Z,6.00
2023-04-18T13:28:57.449Z,4.00
2023-04-18T13:31:25.790Z,6.00
2023-04-18T13:33:53.742Z,8.00
2023-04-18T13:36:21.760Z,9.00
2023-04-18T13:38:51.514Z,6.00
2023-04-18T13:41:19.548Z,7.00
2023-04-18T13:43:47.521Z,8.50
2023-04-18T13:46:15.562Z,5.50
2023-04-18T13:48:43.557Z,5.00
2023-04-18T13:51:11.529Z,5.00
2023-04-18T13:53:39.550Z,7.50
2023-04-18T13:56:07.964Z,6.00
2023-04-18T13:58:36.292Z,7.00
2023-04-18T14:01:04.396Z,6.00
2023-04-18T14:03:34.160Z,6.00
2023-04-18T14:06:03.883Z,6.50
2023-04-18T14:08:31.975Z,7.00
2023-04-18T14:10:59.957Z,6.00
2023-04-18T14:13:28.198Z,7.00
2023-04-18T14:15:56.241Z,8.00
2023-04-18T14:18:24.772Z,5.00
2023-04-18T14:20:52.796Z,7.00
2023-04-18T14:23:22.925Z,6.00
2023-04-18T14:25:51.224Z,6.00
2023-04-18T14:28:21.653Z,6.00
2023-04-18T14:33:18.504Z,8.00
2023-04-18T14:35:46.502Z,6.00
2023-04-18T14:38:14.518Z,5.00
2023-04-18T14:40:42.518Z,6.00
2023-04-18T14:43:10.431Z,6.00
2023-04-18T14:45:38.357Z,8.00
2023-04-18T14:48:08.134Z,8.00
2023-04-18T14:50:38.697Z,6.00
2023-04-18T14:53:07.685Z,7.50
2023-04-18T14:55:36.106Z,7.00
2023-04-18T14:58:04.399Z,7.00
2023-04-18T15:00:33.273Z,6.50
2023-04-18T15:03:01.538Z,6.00
2023-04-18T15:05:29.713Z,10.00
2023-04-18T15:07:58.367Z,7.00
2023-04-18T15:10:26.845Z,6.50
2023-04-18T15:12:54.834Z,8.00
2023-04-18T15:15:22.903Z,7.00
2023-04-18T15:17:51.319Z,8.00
2023-04-18T15:20:22.460Z,6.00
2023-04-18T15:22:51.922Z,6.00
2023-04-18T15:25:21.134Z,7.00
2023-04-18T15:27:49.317Z,8.00
2023-04-18T15:30:17.450Z,6.33
2023-04-18T15:32:45.702Z,6.50
2023-04-18T15:35:14.337Z,8.00
2023-04-18T15:37:42.325Z,6.00
2023-04-18T15:40:11.512Z,7.00
2023-04-18T15:42:39.511Z,5.50
2023-04-18T15:45:08.131Z,6.00
2023-04-18T15:47:36.335Z,7.00
2023-04-18T15:50:04.922Z,6.00
2023-04-18T15:52:33.166Z,8.00
2023-04-18T15:55:01.443Z,7.00
2023-04-18T15:57:29.891Z,6.00
2023-04-18T15:59:59.652Z,6.00
2023-04-18T16:02:28.003Z,5.00
2023-04-18T16:04:56.202Z,8.00
2023-04-18T16:07:24.164Z,9.00
2023-04-18T16:09:52.302Z,9.00
2023-04-18T16:12:20.348Z,7.00
2023-04-18T16:14:48.327Z,8.00
2023-04-18T16:17:16.384Z,10.00
2023-04-18T16:19:44.424Z,11.00
2023-04-18T16:22:12.617Z,15.00
2023-04-18T16:24:42.166Z,12.00
2023-04-18T16:27:10.540Z,11.00
2023-04-18T16:29:38.794Z,11.00
2023-04-18T16:32:06.925Z,13.50
2023-04-18T16:34:35.051Z,14.00
2023-04-18T16:37:03.228Z,15.50
2023-04-18T16:39:31.351Z,14.00
2023-04-18T16:41:59.501Z,10.00
2023-04-18T16:44:27.681Z,11.00
2023-04-18T16:46:55.705Z,12.00
2023-04-18T16:49:23.840Z,9.00
2023-04-18T16:51:52.165Z,12.00
2023-04-18T16:54:20.317Z,14.00
2023-04-18T16:56:50.790Z,13.00
2023-04-18T16:59:18.709Z,14.00
2023-04-18T17:01:47.003Z,10.50
2023-04-18T17:04:17.587Z,11.00
2023-04-18T17:06:46.690Z,13.00
2023-04-18T17:09:15.186Z,14.50
2023-04-18T17:11:43.658Z,13.00
2023-04-18T17:14:11.988Z,12.00
2023-04-18T17:16:42.120Z,12.00
2023-04-18T17:19:10.545Z,12.00
2023-04-18T17:21:38.651Z,11.00
2023-04-18T17:24:07.423Z,11.00
2023-04-18T17:26:37.164Z,11.00
2023-04-18T17:29:05.445Z,15.50
2023-04-18T17:31:34.097Z,10.00
2023-04-18T17:34:03.662Z,11.00
2023-04-18T17:36:31.778Z,12.00
2023-04-18T17:39:06.807Z,10.00
2023-04-18T17:41:37.896Z,16.50
2023-04-18T17:44:07.730Z,12.00
2023-04-18T17:46:36.198Z,14.00
2023-04-18T17:49:04.891Z,13.50
2023-04-18T17:51:33.027Z,14.00
2023-04-18T17:54:01.043Z,9.00
2023-04-18T17:56:30.557Z,11.00
2023-04-18T17:58:58.600Z,12.00
2023-04-18T18:01:30.273Z,14.00
2023-04-18T18:03:58.923Z,12.00
2023-04-18T18:06:29.873Z,10.00
2023-04-18T18:08:57.774Z,9.00
2023-04-18T18:11:28.330Z,11.00
2023-04-18T18:13:58.250Z,9.00
2023-04-18T18:16:26.586Z,15.50
2023-04-18T18:18:54.780Z,11.00
2023-04-18T18:21:23.022Z,9.00
2023-04-18T18:23:51.038Z,14.00
2023-04-18T18:26:19.082Z,10.00
2023-04-18T18:28:47.033Z,10.00
2023-04-18T18:31:14.948Z,9.00
2023-04-18T18:33:43.057Z,14.50
2023-04-18T18:36:11.194Z,13.00
2023-04-18T18:41:08.003Z,10.00
2023-04-18T18:43:36.130Z,9.00
2023-04-18T18:46:04.206Z,12.00
2023-04-18T18:48:32.977Z,8.00
2023-04-18T18:51:01.521Z,10.00
2023-04-18T18:53:29.647Z,10.00
2023-04-18T18:55:57.604Z,12.00
2023-04-18T18:58:26.094Z,11.00
2023-04-18T19:00:56.197Z,8.50
2023-04-18T19:03:25.335Z,12.00
2023-04-18T19:05:53.460Z,18.00
2023-04-18T19:08:21.393Z,11.00
2023-04-18T19:10:50.684Z,10.50
2023-04-18T19:13:22.926Z,8.00
2023-04-18T19:15:51.317Z,12.00
2023-04-18T19:18:21.341Z,14.00
2023-04-18T19:20:50.453Z,11.50
2023-04-18T19:23:19.524Z,11.00
2023-04-18T19:28:18.307Z,11.00
2023-04-18T19:30:46.599Z,14.00
2023-04-18T19:33:14.766Z,12.67
2023-04-18T19:35:44.421Z,18.00
2023-04-18T19:38:12.518Z,19.00
2023-04-18T19:40:40.526Z,18.50
2023-04-18T19:43:08.821Z,23.00
2023-04-18T19:45:37.209Z,17.00
2023-04-18T19:48:05.877Z,25.50
2023-04-18T19:50:33.859Z,24.00
2023-04-18T19:53:01.816Z,24.00
2023-04-18T19:55:31.689Z,22.50
2023-04-18T19:58:00.014Z,23.00
2023-04-18T20:00:28.569Z,20.00
2023-04-18T20:02:58.836Z,22.00
2023-04-18T20:05:27.363Z,22.00
2023-04-18T20:07:55.359Z,21.00
2023-04-18T20:10:23.382Z,22.00
2023-04-18T20:12:51.421Z,25.00
2023-04-18T20:15:19.414Z,21.50
2023-04-18T20:17:47.504Z,21.00
2023-04-18T20:20:15.597Z,20.00
2023-04-18T20:22:44.829Z,18.50
2023-04-18T20:25:12.824Z,26.00
2023-04-18T20:30:09.055Z,26.00
2023-04-18T20:32:37.039Z,26.00
2023-04-18T20:35:05.653Z,29.00
2023-04-18T20:37:36.676Z,25.00
2023-04-18T20:40:07.982Z,25.00
2023-04-18T20:42:36.801Z,29.00
2023-04-18T20:45:22.927Z,25.50
2023-04-18T20:47:51.050Z,27.50
2023-04-18T20:50:20.564Z,28.00
2023-04-18T20:52:48.571Z,22.00
2023-04-18T20:55:18.317Z,24.00
2023-04-18T20:57:46.268Z,25.50
2023-04-18T21:00:14.512Z,30.00
2023-04-18T21:02:43.688Z,35.50
2023-04-18T21:05:12.216Z,24.00
2023-04-18T21:07:40.369Z,27.00
2023-04-18T21:10:08.610Z,31.00
2023-04-18T21:12:36.699Z,26.00
2023-04-18T21:15:05.591Z,23.00
2023-04-18T21:17:33.721Z,27.00
2023-04-18T21:20:02.079Z,30.00
2023-04-18T21:22:30.003Z,25.50
2023-04-18T21:24:57.940Z,28.00
2023-04-18T21:27:26.213Z,26.00
2023-04-18T21:29:54.113Z,24.00
2023-04-18T21:32:22.082Z,23.00
2023-04-18T21:34:50.081Z,24.00
2023-04-18T21:37:18.111Z,25.00
2023-04-18T21:39:46.214Z,21.00
2023-04-18T21:42:14.200Z,26.00
2023-04-18T21:44:42.121Z,26.50
2023-04-18T21:47:10.227Z,31.00
2023-04-18T21:49:38.226Z,22.00
2023-04-18T21:52:06.231Z,28.50
2023-04-18T21:54:34.243Z,28.00
2023-04-18T21:57:02.823Z,23.00
2023-04-18T21:59:31.109Z,24.00
2023-04-18T22:01:59.219Z,29.00
2023-04-18T22:04:27.798Z,27.00
2023-04-18T22:06:59.956Z,21.00
2023-04-18T22:09:28.626Z,22.00
2023-04-18T22:11:57.123Z,27.00
2023-04-18T22:14:26.079Z,18.50
2023-04-18T22:16:54.796Z,27.00
2023-04-18T22:19:22.896Z,23.00
2023-04-18T22:21:51.503Z,24.00
2023-04-18T22:24:19.751Z,24.50
2023-04-18T22:26:48.243Z,23.00
2023-04-18T22:29:16.303Z,24.50
2023-04-18T22:31:44.522Z,21.00
2023-04-18T22:34:12.807Z,22.50
2023-04-18T22:36:42.874Z,23.00
2023-04-18T22:39:12.354Z,20.50
2023-04-18T22:41:40.554Z,19.50
2023-04-18T22:44:08.471Z,21.50
2023-04-18T22:46:38.638Z,25.00
2023-04-18T22:49:07.441Z,22.00
2023-04-18T22:51:35.479Z,24.00
2023-04-18T22:54:03.509Z,22.00
2023-04-18T22:56:31.462Z,23.00
2023-04-18T22:58:59.463Z,19.00
2023-04-18T23:01:27.478Z,23.00
2023-04-18T23:03:56.020Z,24.00
2023-04-18T23:06:24.140Z,23.00
2023-04-18T23:08:52.212Z,16.00
2023-04-18T23:11:20.098Z,24.00
2023-04-18T23:13:48.002Z,17.00
2023-04-18T23:16:16.088Z,21.50
2023-04-18T23:18:44.382Z,18.00
2023-04-18T23:21:12.552Z,19.33
2023-04-18T23:23:40.562Z,21.00
2023-04-18T23:28:43.203Z,20.00
2023-04-18T23:31:11.342Z,21.00
2023-04-18T23:33:39.302Z,20.00
2023-04-18T23:36:07.838Z,19.00
2023-04-18T23:38:44.031Z,17.00
2023-04-18T23:41:11.951Z,20.00
2023-04-18T23:43:39.863Z,18.50
2023-04-18T23:46:07.835Z,17.00
2023-04-18T23:48:36.058Z,17.00
2023-04-18T23:51:04.071Z,15.00
2023-04-18T23:53:32.246Z,19.00
2023-04-18T23:56:00.146Z,20.00
2023-04-18T23:58:28.267Z,19.00
